Time;durP1;ratioP1;P1;durP2;ratioP2;P2;SDS_P1;SDS_P2;PMS_P1;PMS_P2;Temp;Humidity;BMP_temperature;BMP_pressure;BME280_temperature;BME280_humidity;BME280_pressure;Samples;Min_cycle;Max_cycle;Signal;HPM_P1;HPM_P2
2021/12/21 00:01:58;;;;;;;9.10;6.53;;;-2.50;99.90;;;;;;5044509;28;20044;-68
2021/12/21 00:04:24;;;;;;;9.63;5.75;;;-2.50;99.90;;;;;;5037987;28;20091;-68
2021/12/21 00:06:49;;;;;;;12.95;7.18;;;-2.50;99.90;;;;;;5032697;28;20954;-68
2021/12/21 00:09:15;;;;;;;13.90;7.20;;;-2.50;99.90;;;;;;5034597;28;20021;-68
2021/12/21 00:11:41;;;;;;;9.25;6.55;;;-2.50;99.90;;;;;;5036049;28;20025;-68
2021/12/21 00:19:50;;;;;;;7.50;4.82;;;-2.50;99.90;;;;;;5036061;28;20037;-68
2021/12/21 00:25:01;;;;;;;10.38;5.93;;;-2.60;99.90;;;;;;5017583;28;20359;-68
2021/12/21 00:27:27;;;;;;;10.15;5.30;;;-2.60;99.90;;;;;;5038448;28;20033;-68
2021/12/21 00:29:53;;;;;;;11.45;6.15;;;-2.60;99.90;;;;;;5037608;28;20036;-68
2021/12/21 00:32:18;;;;;;;6.10;5.35;;;-2.70;99.90;;;;;;5037638;28;20067;-68
2021/12/21 00:34:44;;;;;;;6.47;4.93;;;-2.70;99.90;;;;;;5039802;28;20475;-68
2021/12/21 00:37:09;;;;;;;8.48;5.53;;;-2.80;99.90;;;;;;5039938;28;20188;-71
2021/12/21 00:39:35;;;;;;;7.38;4.95;;;-2.80;99.90;;;;;;5065134;28;20029;-68
2021/12/21 00:42:01;;;;;;;10.75;4.78;;;-2.80;99.90;;;;;;5040134;28;20921;-69
2021/12/21 00:44:28;;;;;;;7.30;5.40;;;-2.80;99.90;;;;;;5034259;28;20565;-68
2021/12/21 00:46:54;;;;;;;10.93;5.50;;;-2.90;99.90;;;;;;5032869;28;20098;-68
2021/12/21 00:49:21;;;;;;;7.18;4.68;;;-2.90;99.90;;;;;;5038685;28;20060;-68
2021/12/21 00:51:47;;;;;;;7.72;5.47;;;-2.90;99.90;;;;;;5037149;28;20025;-68
2021/12/21 00:54:14;;;;;;;12.52;6.40;;;-3.00;99.90;;;;;;5039814;28;20129;-67
2021/12/21 00:56:40;;;;;;;8.77;5.43;;;-3.10;99.90;;;;;;5046495;28;20045;-68
2021/12/21 00:59:06;;;;;;;11.07;5.72;;;-3.20;99.90;;;;;;5034816;28;20044;-67
2021/12/21 01:01:40;;;;;;;8.88;4.68;;;-3.30;99.90;;;;;;5036640;28;20045;-68
2021/12/21 01:04:10;;;;;;;7.90;4.00;;;-3.20;99.90;;;;;;5033052;28;20022;-68
2021/12/21 01:06:43;;;;;;;8.18;5.35;;;-3.10;99.90;;;;;;5037736;28;20036;-68
2021/12/21 01:09:31;;;;;;;8.88;5.18;;;-3.00;99.90;;;;;;5032999;28;20028;-68
2021/12/21 01:12:02;;;;;;;12.63;5.40;;;-3.00;99.90;;;;;;5036714;28;20033;-68
2021/12/21 01:19:33;;;;;;;7.15;3.35;;;-2.80;99.90;;;;;;5035510;28;20526;-68
2021/12/21 01:22:09;;;;;;;5.82;3.35;;;-2.90;99.90;;;;;;5039319;28;20068;-68
2021/12/21 01:29:36;;;;;;;7.65;3.88;;;-3.10;99.90;;;;;;5034419;28;20025;-68
2021/12/21 01:32:26;;;;;;;6.00;4.82;;;-3.10;99.90;;;;;;5040093;28;20516;-68
2021/12/21 01:35:10;;;;;;;6.82;4.00;;;-3.10;99.90;;;;;;5038435;28;20743;-68
2021/12/21 01:50:23;;;;;;;5.65;4.20;;;-2.90;99.90;;;;;;5037525;28;21292;-68
2021/12/21 01:52:49;;;;;;;5.65;3.90;;;-2.90;99.90;;;;;;5038292;28;20491;-68
2021/12/21 01:55:15;;;;;;;6.60;4.53;;;-2.90;99.90;;;;;;5041142;28;20047;-68
2021/12/21 01:57:41;;;;;;;6.13;4.38;;;-2.90;99.90;;;;;;5038402;28;20045;-68
2021/12/21 02:00:07;;;;;;;11.50;5.55;;;-2.90;99.90;;;;;;5030676;28;20021;-67
2021/12/21 02:02:33;;;;;;;9.55;6.15;;;-2.90;99.90;;;;;;5032268;28;20076;-66
2021/12/21 02:04:59;;;;;;;7.97;5.10;;;-3.00;99.90;;;;;;5033639;28;21233;-66
2021/12/21 02:07:24;;;;;;;7.47;4.20;;;-3.00;99.90;;;;;;5040301;28;20024;-66
2021/12/21 02:09:50;;;;;;;11.43;4.57;;;-3.00;99.90;;;;;;5037070;28;20028;-65
2021/12/21 02:12:18;;;;;;;7.32;4.50;;;-3.00;99.90;;;;;;5032785;28;20099;-66
2021/12/21 02:14:55;;;;;;;5.70;4.53;;;-3.00;99.90;;;;;;5035862;28;20040;-66
2021/12/21 02:20:57;;;;;;;6.22;4.03;;;-3.10;99.90;;;;;;5034279;28;20025;-66
2021/12/21 02:23:09;;;;;;;;;;;-3.10;99.90;;;;;;5034150;28;20091;-66
2021/12/21 02:30:48;;;;;;;4.38;3.97;;;-3.20;99.90;;;;;;5037846;28;20840;-66
2021/12/21 02:33:14;;;;;;;6.68;2.90;;;-3.20;99.90;;;;;;5038555;28;20033;-66
2021/12/21 02:35:40;;;;;;;4.25;3.75;;;-3.20;99.90;;;;;;5037873;28;20479;-66
2021/12/21 02:38:05;;;;;;;3.45;3.22;;;-3.20;99.90;;;;;;5037085;28;20530;-66
2021/12/21 02:40:32;;;;;;;8.02;3.30;;;-3.30;99.90;;;;;;5041307;28;20029;-66
2021/12/21 02:42:57;;;;;;;3.90;3.47;;;-3.30;99.90;;;;;;5031879;28;20511;-66
2021/12/21 02:45:23;;;;;;;5.20;4.35;;;-3.30;99.90;;;;;;5038548;28;20087;-67
2021/12/21 02:47:49;;;;;;;5.57;3.88;;;-3.40;99.90;;;;;;5032156;28;20033;-66
2021/12/21 02:50:15;;;;;;;8.80;6.50;;;-3.30;99.90;;;;;;5031369;28;20052;-66
2021/12/21 02:52:40;;;;;;;5.88;4.05;;;-3.30;99.90;;;;;;5036302;28;20830;-66
2021/12/21 02:55:07;;;;;;;6.90;4.15;;;-3.30;99.90;;;;;;5033141;28;20077;-66
2021/12/21 02:57:33;;;;;;;4.68;3.28;;;-3.30;99.90;;;;;;5031193;28;20041;-65
2021/12/21 03:00:01;;;;;;;8.35;4.55;;;-3.30;99.90;;;;;;5032111;28;20090;-65
2021/12/21 03:02:27;;;;;;;5.72;3.13;;;-3.30;99.90;;;;;;5033985;28;20044;-66
2021/12/21 03:04:53;;;;;;;5.03;4.18;;;-3.30;99.90;;;;;;5031694;28;20028;-65
2021/12/21 03:10:10;;;;;;;5.40;3.45;;;-3.40;99.90;;;;;;5032257;28;20104;-66
2021/12/21 03:15:27;;;;;;;4.60;3.60;;;-3.40;99.90;;;;;;5032076;28;20035;-66
2021/12/21 03:17:54;;;;;;;4.75;3.80;;;-3.40;99.90;;;;;;5039246;28;20041;-66
2021/12/21 03:20:21;;;;;;;4.25;3.00;;;-3.30;99.90;;;;;;5030428;28;20498;-66
2021/12/21 03:22:47;;;;;;;4.53;3.50;;;-3.30;99.90;;;;;;5036485;28;20480;-66
2021/12/21 03:25:13;;;;;;;4.22;3.85;;;-3.30;99.90;;;;;;5034954;28;20033;-66
2021/12/21 03:27:39;;;;;;;3.47;3.20;;;-3.30;99.90;;;;;;5042377;28;20124;-66
2021/12/21 03:30:08;;;;;;;3.78;3.42;;;-3.40;99.90;;;;;;5032171;28;20486;-66
2021/12/21 03:32:34;;;;;;;4.15;3.35;;;-3.40;99.90;;;;;;5035493;28;20045;-66
2021/12/21 03:35:00;;;;;;;4.68;4.18;;;-3.50;99.90;;;;;;5038137;28;20083;-66
2021/12/21 03:37:26;;;;;;;5.22;3.83;;;-3.60;99.90;;;;;;5035292;28;20404;-66
2021/12/21 03:39:54;;;;;;;5.72;4.38;;;-3.60;99.90;;;;;;5038146;28;20028;-66
2021/12/21 03:42:20;;;;;;;5.07;3.70;;;-3.50;99.90;;;;;;5038197;28;20570;-66
2021/12/21 03:44:47;;;;;;;4.32;3.78;;;-3.60;99.90;;;;;;5038581;28;20045;-66
2021/12/21 03:47:15;;;;;;;3.55;2.88;;;-3.60;99.90;;;;;;5039188;28;20367;-66
2021/12/21 03:52:10;;;;;;;;;;;-3.50;99.90;;;;;;5035056;28;20029;-66
2021/12/21 03:54:37;;;;;;;3.63;3.03;;;-3.50;99.90;;;;;;5034892;28;19908;-66
2021/12/21 03:57:03;;;;;;;4.90;3.72;;;-3.50;99.90;;;;;;5031283;28;20142;-66
2021/12/21 03:59:30;;;;;;;5.50;3.33;;;-3.40;99.90;;;;;;5034969;28;20032;-66
2021/12/21 04:01:56;;;;;;;12.63;3.72;;;-3.40;99.90;;;;;;5036075;28;20049;-66
2021/12/21 04:04:23;;;;;;;8.32;3.65;;;-3.40;99.90;;;;;;5032408;28;20076;-66
2021/12/21 04:06:49;;;;;;;3.70;2.97;;;-3.60;99.90;;;;;;5033673;28;20032;-66
2021/12/21 04:09:15;;;;;;;3.83;2.80;;;-3.70;99.90;;;;;;5030940;28;20889;-66
2021/12/21 04:11:41;;;;;;;6.13;3.90;;;-3.70;99.90;;;;;;5032505;28;20885;-66
2021/12/21 04:14:07;;;;;;;4.90;4.47;;;-3.70;99.90;;;;;;5033197;28;20029;-66
2021/12/21 04:16:33;;;;;;;4.35;4.00;;;-3.80;99.90;;;;;;5035962;28;20481;-66
2021/12/21 04:18:59;;;;;;;3.60;3.30;;;-3.80;99.90;;;;;;5032992;28;20435;-66
2021/12/21 04:21:25;;;;;;;11.52;4.25;;;-3.70;99.90;;;;;;5031388;28;20037;-66
2021/12/21 04:23:51;;;;;;;5.05;4.07;;;-3.70;99.90;;;;;;5036843;28;20078;-66
2021/12/21 04:26:17;;;;;;;8.32;4.38;;;-3.70;99.90;;;;;;5034412;28;20037;-66
2021/12/21 04:28:44;;;;;;;4.40;3.15;;;-3.70;99.90;;;;;;5036051;28;20308;-66
2021/12/21 04:31:10;;;;;;;4.45;4.00;;;-3.80;99.90;;;;;;5031224;28;20033;-66
2021/12/21 04:33:37;;;;;;;3.67;3.20;;;-3.70;99.90;;;;;;5028742;28;20069;-66
2021/12/21 04:36:04;;;;;;;6.22;3.70;;;-3.70;99.90;;;;;;5027790;28;20402;-66
2021/12/21 04:38:34;;;;;;;8.35;3.35;;;-3.60;99.90;;;;;;5028756;28;20033;-65
2021/12/21 04:41:26;;;;;;;4.35;3.53;;;-3.60;99.90;;;;;;5025234;28;20116;-66
2021/12/21 04:43:49;;;;;;;6.78;3.30;;;-3.50;99.90;;;;;;5029388;28;20499;-66
2021/12/21 04:46:15;;;;;;;3.95;3.25;;;-3.50;99.90;;;;;;5025129;28;20490;-66
2021/12/21 04:48:41;;;;;;;7.03;4.00;;;-3.50;99.90;;;;;;5031593;28;20037;-66
2021/12/21 04:51:07;;;;;;;6.00;3.58;;;-3.60;99.90;;;;;;5025478;28;20065;-66
2021/12/21 04:53:33;;;;;;;7.13;3.63;;;-3.60;99.90;;;;;;5025840;28;20037;-66
2021/12/21 04:55:59;;;;;;;6.75;4.68;;;-3.60;99.90;;;;;;5028300;28;20610;-66
2021/12/21 04:58:24;;;;;;;5.30;4.40;;;-3.60;99.90;;;;;;5028187;28;20122;-66
2021/12/21 05:00:51;;;;;;;5.35;3.45;;;-3.50;99.90;;;;;;5028341;28;20048;-66
2021/12/21 05:03:17;;;;;;;10.13;4.28;;;-3.50;99.90;;;;;;5039874;28;20033;-66
2021/12/21 05:05:43;;;;;;;5.55;4.32;;;-3.40;99.90;;;;;;5040476;28;20154;-66
2021/12/21 05:08:19;;;;;;;8.65;4.75;;;-3.40;99.90;;;;;;5036807;28;20076;-66
2021/12/21 05:10:48;;;;;;;5.75;4.03;;;-3.40;99.90;;;;;;5045444;28;21062;-66
2021/12/21 05:13:16;;;;;;;10.43;4.20;;;-3.40;99.90;;;;;;5037928;28;20049;-66
2021/12/21 05:15:42;;;;;;;5.18;4.30;;;-3.40;99.90;;;;;;5037594;28;21284;-66
2021/12/21 05:18:09;;;;;;;8.00;3.58;;;-3.40;99.90;;;;;;5038856;28;20040;-66
2021/12/21 05:20:36;;;;;;;7.57;4.15;;;-3.40;99.90;;;;;;5033674;28;20414;-66
2021/12/21 05:23:02;;;;;;;5.25;3.35;;;-3.40;99.90;;;;;;5045730;28;20037;-66
2021/12/21 05:25:28;;;;;;;5.80;4.40;;;-3.50;99.90;;;;;;5036638;28;20045;-66
2021/12/21 05:27:54;;;;;;;5.10;3.97;;;-3.60;99.90;;;;;;5036703;28;20111;-66
2021/12/21 05:30:22;;;;;;;5.68;4.72;;;-3.70;99.90;;;;;;5036442;28;20029;-67
2021/12/21 05:32:48;;;;;;;7.82;4.25;;;-3.70;99.90;;;;;;5034431;28;20560;-66
2021/12/21 05:35:14;;;;;;;5.57;4.25;;;-3.70;99.90;;;;;;5044156;28;20036;-65
2021/12/21 05:37:41;;;;;;;4.10;3.72;;;-3.70;99.90;;;;;;5041995;28;20037;-66
2021/12/21 05:40:15;;;;;;;12.48;2.80;;;-3.80;99.90;;;;;;5036434;28;20127;-66
2021/12/21 05:42:42;;;;;;;6.05;4.55;;;-3.80;99.90;;;;;;5037068;28;20080;-66
2021/12/21 05:45:10;;;;;;;5.10;4.15;;;-3.80;99.90;;;;;;5037029;28;20365;-65
2021/12/21 05:47:36;;;;;;;9.60;4.53;;;-3.80;99.90;;;;;;5031551;28;21049;-66
2021/12/21 05:50:05;;;;;;;5.78;4.57;;;-3.80;99.90;;;;;;5041448;28;20020;-66
2021/12/21 05:52:30;;;;;;;;;;;-3.80;99.90;;;;;;5040023;28;20551;-66
2021/12/21 05:54:56;;;;;;;7.30;3.13;;;-3.80;99.90;;;;;;5032197;28;19934;-65
2021/12/21 05:57:22;;;;;;;3.95;3.40;;;-3.70;99.90;;;;;;5037879;28;20040;-65
2021/12/21 05:59:47;;;;;;;7.50;4.35;;;-3.60;99.90;;;;;;5037674;28;20040;-65
2021/12/21 06:02:13;;;;;;;9.90;4.93;;;-3.60;99.90;;;;;;5032720;28;20049;-65
2021/12/21 06:04:39;;;;;;;6.70;4.55;;;-3.60;99.90;;;;;;5035564;28;20084;-66
2021/12/21 06:07:05;;;;;;;7.57;4.28;;;-3.60;99.90;;;;;;5040438;28;20440;-66
2021/12/21 06:09:31;;;;;;;8.05;5.45;;;-3.60;99.90;;;;;;5043054;28;20036;-66
2021/12/21 06:27:45;;;;;;;4.82;3.65;;;-3.80;99.90;;;;;;5033752;28;20037;-66
2021/12/21 06:30:12;;;;;;;4.95;3.70;;;-3.70;99.90;;;;;;5032315;28;20142;-68
2021/12/21 06:32:38;;;;;;;4.63;4.05;;;-3.70;99.90;;;;;;5034456;28;20048;-66
2021/12/21 06:35:04;;;;;;;4.40;3.58;;;-3.60;99.90;;;;;;5039031;28;20036;-66
2021/12/21 06:37:30;;;;;;;7.13;3.63;;;-3.70;99.90;;;;;;5034451;28;20032;-66
2021/12/21 06:39:56;;;;;;;7.57;4.68;;;-3.60;99.90;;;;;;5034682;28;20571;-66
2021/12/21 06:42:22;;;;;;;3.35;3.05;;;-3.60;99.90;;;;;;5041618;28;20041;-66
2021/12/21 06:44:54;;;;;;;4.45;4.00;;;-3.60;99.90;;;;;;5043504;28;20025;-66
2021/12/21 06:52:49;;;;;;;3.92;3.63;;;-3.60;99.90;;;;;;5036300;28;20076;-66
2021/12/21 06:55:14;;;;;;;5.97;3.95;;;-3.60;99.90;;;;;;5034779;28;20427;-66
2021/12/21 06:57:43;;;;;;;6.72;4.43;;;-3.70;99.90;;;;;;5032961;28;20072;-66
2021/12/21 07:00:13;;;;;;;4.93;4.55;;;-3.70;99.90;;;;;;5036529;28;20029;-66
2021/12/21 07:02:39;;;;;;;9.90;5.50;;;-3.90;99.90;;;;;;5043142;28;21640;-66
2021/12/21 07:05:06;;;;;;;8.70;6.43;;;-3.90;99.90;;;;;;5042376;28;20049;-67
2021/12/21 07:07:31;;;;;;;5.05;4.53;;;-3.90;99.90;;;;;;5029963;28;20130;-66
2021/12/21 07:10:04;;;;;;;4.13;3.50;;;-3.90;99.90;;;;;;5036010;28;20139;-66
2021/12/21 07:20:24;;;;;;;2.92;2.75;;;-4.00;99.90;;;;;;5029446;28;20150;-65
2021/12/21 07:22:50;;;;;;;3.67;3.38;;;-4.00;99.90;;;;;;5027376;28;20642;-66
2021/12/21 07:25:16;;;;;;;5.85;4.28;;;-4.00;99.90;;;;;;5028368;28;20660;-66
2021/12/21 07:27:42;;;;;;;7.53;4.15;;;-4.00;99.90;;;;;;5043949;28;20037;-65
2021/12/21 07:30:10;;;;;;;4.85;4.35;;;-4.00;99.90;;;;;;5033416;28;20044;-66
2021/12/21 07:32:35;;;;;;;4.88;4.43;;;-4.10;99.90;;;;;;5031749;28;20041;-66
2021/12/21 07:35:01;;;;;;;5.82;4.25;;;-4.20;99.90;;;;;;5031270;28;20171;-65
2021/12/21 07:37:27;;;;;;;7.47;5.45;;;-4.20;99.90;;;;;;5030406;28;20045;-66
2021/12/21 07:39:53;;;;;;;11.82;5.40;;;-4.10;99.90;;;;;;5029319;28;20079;-65
2021/12/21 07:42:20;;;;;;;4.55;3.95;;;-4.10;99.90;;;;;;5028813;28;20034;-65
2021/12/21 07:44:46;;;;;;;5.45;4.13;;;-4.00;99.90;;;;;;5035079;28;20043;-65
2021/12/21 07:47:12;;;;;;;7.72;3.53;;;-4.10;99.90;;;;;;5030813;28;20077;-66
2021/12/21 07:49:38;;;;;;;5.22;4.60;;;-4.10;99.90;;;;;;5027752;28;22312;-66
2021/12/21 07:52:07;;;;;;;6.05;4.22;;;-4.10;99.90;;;;;;5033880;28;20796;-66
2021/12/21 07:54:33;;;;;;;6.72;4.43;;;-4.10;99.90;;;;;;5029313;28;20047;-65
2021/12/21 07:56:59;;;;;;;3.75;3.45;;;-4.10;99.90;;;;;;5032213;28;20048;-66
2021/12/21 07:59:24;;;;;;;5.78;4.45;;;-4.10;99.90;;;;;;5038445;28;20032;-65
2021/12/21 08:01:51;;;;;;;6.38;5.18;;;-4.20;99.90;;;;;;5036603;28;20075;-66
2021/12/21 08:04:17;;;;;;;5.45;4.60;;;-4.10;99.90;;;;;;5041162;28;20038;-66
2021/12/21 08:06:45;;;;;;;5.07;4.57;;;-4.10;99.90;;;;;;5041310;28;20041;-66
2021/12/21 08:09:11;;;;;;;11.32;5.88;;;-4.00;99.90;;;;;;5039656;28;20040;-66
2021/12/21 08:14:06;;;;;;;;;;;-3.90;99.90;;;;;;5035758;28;20116;-66
2021/12/21 08:16:32;;;;;;;4.65;4.25;;;-4.00;99.90;;;;;;5035417;28;19920;-65
2021/12/21 08:18:58;;;;;;;5.53;4.88;;;-4.00;99.90;;;;;;5031434;28;20402;-66
2021/12/21 08:21:25;;;;;;;6.32;4.53;;;-4.00;99.90;;;;;;5033929;28;20037;-65
2021/12/21 08:23:51;;;;;;;5.78;4.80;;;-3.90;99.90;;;;;;5033572;28;20112;-65
2021/12/21 08:26:17;;;;;;;5.05;4.63;;;-4.00;99.90;;;;;;5031398;28;20041;-65
2021/12/21 08:28:43;;;;;;;6.78;6.13;;;-3.90;99.90;;;;;;5036530;28;20389;-66
2021/12/21 08:31:11;;;;;;;8.13;5.70;;;-3.90;99.90;;;;;;5031927;28;20118;-66
2021/12/21 08:33:37;;;;;;;4.45;4.05;;;-3.80;99.90;;;;;;5036359;28;20028;-66
2021/12/21 08:36:07;;;;;;;6.47;4.40;;;-3.80;99.90;;;;;;5035845;28;20444;-66
2021/12/21 08:38:36;;;;;;;6.38;4.75;;;-3.70;99.90;;;;;;5036561;28;20041;-66
2021/12/21 08:41:03;;;;;;;6.75;5.50;;;-3.70;99.90;;;;;;5036687;28;20057;-66
2021/12/21 08:43:31;;;;;;;6.65;4.03;;;-3.70;99.90;;;;;;5041201;28;20461;-66
2021/12/21 08:45:57;;;;;;;9.70;4.97;;;-3.60;99.90;;;;;;5037727;28;20082;-66
2021/12/21 08:48:25;;;;;;;5.53;4.72;;;-3.60;99.90;;;;;;5038535;28;20033;-66
2021/12/21 08:50:53;;;;;;;8.27;4.70;;;-3.50;99.90;;;;;;5035053;28;20039;-66
2021/12/21 08:53:19;;;;;;;6.13;4.57;;;-3.40;99.90;;;;;;5035255;28;20037;-66
2021/12/21 08:55:45;;;;;;;8.48;5.30;;;-3.40;99.90;;;;;;5037679;28;20497;-66
2021/12/21 08:58:12;;;;;;;8.27;5.68;;;-3.30;99.90;;;;;;5043715;28;20033;-66
2021/12/21 09:00:38;;;;;;;5.68;4.72;;;-3.30;99.90;;;;;;5044875;28;20993;-66
2021/12/21 09:03:05;;;;;;;6.95;4.15;;;-3.20;99.90;;;;;;5038944;28;20064;-66
2021/12/21 09:05:31;;;;;;;5.45;4.95;;;-3.20;99.90;;;;;;5034363;28;20029;-65
2021/12/21 09:07:59;;;;;;;11.77;7.18;;;-3.10;99.90;;;;;;5037971;28;20040;-66
2021/12/21 09:10:26;;;;;;;8.65;4.43;;;-3.00;99.90;;;;;;5041035;28;20496;-66
2021/12/21 09:12:52;;;;;;;8.68;5.80;;;-3.00;99.90;;;;;;5038521;28;20230;-66
2021/12/21 09:15:19;;;;;;;10.80;5.57;;;-3.00;99.90;;;;;;5035416;28;20109;-65
2021/12/21 09:17:45;;;;;;;8.30;4.78;;;-2.90;99.90;;;;;;5031007;28;20037;-66
2021/12/21 09:20:13;;;;;;;6.18;4.85;;;-2.90;99.90;;;;;;5036163;28;20037;-66
2021/12/21 09:22:40;;;;;;;13.73;6.68;;;-2.80;99.90;;;;;;5031171;28;20068;-66
2021/12/21 09:25:06;;;;;;;9.52;5.50;;;-2.80;99.90;;;;;;5030139;28;20127;-66
2021/12/21 09:27:32;;;;;;;7.82;5.75;;;-2.80;99.90;;;;;;5035383;28;20099;-67
2021/12/21 09:29:58;;;;;;;9.75;4.28;;;-2.70;99.90;;;;;;5030373;28;20033;-67
2021/12/21 09:32:25;;;;;;;10.50;6.57;;;-2.70;99.90;;;;;;5032883;28;20045;-66
2021/12/21 09:34:51;;;;;;;8.57;5.38;;;-2.70;99.90;;;;;;5030168;28;20041;-66
2021/12/21 09:37:20;;;;;;;8.02;5.43;;;-2.60;99.90;;;;;;5034706;28;20048;-67
2021/12/21 09:39:51;;;;;;;5.43;4.72;;;-2.60;99.90;;;;;;5036061;28;20036;-66
2021/12/21 09:42:20;;;;;;;7.18;5.72;;;-2.50;99.90;;;;;;5039250;28;20020;-66
2021/12/21 09:44:47;;;;;;;9.65;7.60;;;-2.50;99.90;;;;;;5035585;28;20036;-66
2021/12/21 09:47:14;;;;;;;8.38;6.07;;;-2.50;99.90;;;;;;5034282;28;20048;-66
2021/12/21 09:49:41;;;;;;;14.25;7.38;;;-2.40;99.90;;;;;;5035566;28;20444;-66
2021/12/21 09:52:10;;;;;;;7.40;5.55;;;-2.40;99.90;;;;;;5043052;28;20033;-66
2021/12/21 09:54:37;;;;;;;11.32;6.72;;;-2.40;99.90;;;;;;5034371;28;20033;-66
2021/12/21 09:57:04;;;;;;;11.20;6.97;;;-2.40;99.90;;;;;;5032404;28;20726;-66
2021/12/21 09:59:30;;;;;;;9.85;7.50;;;-2.30;99.90;;;;;;5031490;28;20037;-66
2021/12/21 10:01:57;;;;;;;8.95;5.25;;;-2.30;99.90;;;;;;5033371;28;20095;-66
2021/12/21 10:04:24;;;;;;;10.23;7.10;;;-2.30;99.90;;;;;;5055081;28;20044;-66
2021/12/21 10:06:54;;;;;;;9.98;6.50;;;-2.20;99.90;;;;;;5047524;28;20120;-66
2021/12/21 10:09:23;;;;;;;12.55;6.70;;;-2.10;99.90;;;;;;5046376;28;20033;-66
2021/12/21 10:11:50;;;;;;;10.85;7.65;;;-2.10;99.90;;;;;;5031926;28;20125;-66
2021/12/21 10:14:17;;;;;;;12.23;6.50;;;-2.10;99.90;;;;;;5032556;28;20466;-66
2021/12/21 10:16:44;;;;;;;11.10;6.78;;;-2.10;99.90;;;;;;5039580;28;20484;-66
2021/12/21 10:19:21;;;;;;;10.93;6.32;;;-2.00;99.90;;;;;;5030811;28;20080;-66
2021/12/21 10:21:47;;;;;;;7.75;5.82;;;-1.90;99.90;;;;;;5033932;28;20029;-66
2021/12/21 10:24:27;;;;;;;9.23;6.75;;;-1.80;99.90;;;;;;5033533;28;20045;-66
2021/12/21 10:27:06;;;;;;;7.13;5.80;;;-1.70;99.90;;;;;;5030537;28;20487;-67
2021/12/21 10:29:55;;;;;;;11.57;7.55;;;-1.70;99.90;;;;;;5029755;28;20741;-66
2021/12/21 10:32:27;;;;;;;13.05;7.25;;;-1.70;99.90;;;;;;5032982;28;20044;-66
2021/12/21 10:35:06;;;;;;;12.75;6.63;;;-1.70;99.90;;;;;;5031218;28;20090;-66
2021/12/21 10:37:37;;;;;;;5.93;4.82;;;-1.60;99.90;;;;;;5031963;28;20034;-66
2021/12/21 10:40:12;;;;;;;6.40;5.20;;;-1.60;99.90;;;;;;5031565;28;20037;-66
2021/12/21 10:43:10;;;;;;;7.63;6.50;;;-1.50;99.90;;;;;;5039160;28;20083;-66
2021/12/21 10:45:39;;;;;;;8.43;5.80;;;-1.50;99.90;;;;;;5035391;28;20032;-66
2021/12/21 10:48:08;;;;;;;16.08;8.18;;;-1.50;99.90;;;;;;5037930;28;20383;-66
2021/12/21 10:50:34;;;;;;;7.18;5.97;;;-1.50;99.90;;;;;;5042910;28;20054;-66
2021/12/21 10:53:02;;;;;;;10.65;6.63;;;-1.50;99.90;;;;;;5043367;28;20655;-66
2021/12/21 10:55:37;;;;;;;8.48;6.00;;;-1.50;99.90;;;;;;5038844;28;20504;-66
2021/12/21 10:58:17;;;;;;;10.70;7.00;;;-1.40;99.90;;;;;;5043100;28;20127;-66
2021/12/21 11:00:44;;;;;;;9.80;7.43;;;-1.40;99.90;;;;;;5038200;28;20451;-67
2021/12/21 11:03:12;;;;;;;11.50;6.85;;;-1.40;99.90;;;;;;5032478;28;20029;-66
2021/12/21 11:05:38;;;;;;;10.93;6.80;;;-1.40;99.90;;;;;;5041109;28;20109;-66
2021/12/21 11:08:14;;;;;;;6.90;5.30;;;-1.40;99.90;;;;;;5035343;28;20390;-66
2021/12/21 11:10:44;;;;;;;13.02;7.75;;;-1.40;99.90;;;;;;5031012;28;20033;-66
2021/12/21 11:13:15;;;;;;;12.50;6.35;;;-1.40;99.90;;;;;;5033028;28;20030;-66
2021/12/21 11:15:52;;;;;;;11.98;6.78;;;-1.30;99.90;;;;;;5032808;28;20032;-66
2021/12/21 11:18:18;;;;;;;8.75;6.68;;;-1.30;99.90;;;;;;5035782;28;20033;-66
2021/12/21 11:20:48;;;;;;;13.13;6.65;;;-1.30;99.90;;;;;;5033308;28;20415;-66
2021/12/21 11:23:16;;;;;;;12.40;8.05;;;-1.30;99.90;;;;;;5030478;28;20041;-66
2021/12/21 11:25:43;;;;;;;7.90;6.45;;;-1.40;99.90;;;;;;5031984;28;20025;-66
2021/12/21 11:28:14;;;;;;;11.30;7.30;;;-1.30;99.90;;;;;;5031208;28;20110;-66
2021/12/21 11:30:41;;;;;;;9.23;6.68;;;-1.30;99.90;;;;;;5039841;28;20037;-66
2021/12/21 11:33:07;;;;;;;9.77;6.55;;;-1.20;99.90;;;;;;5038772;28;20029;-67
2021/12/21 11:38:07;;;;;;;13.00;7.40;;;-1.10;99.90;;;;;;5038865;28;20067;-67
2021/12/21 11:40:36;;;;;;;13.10;8.90;;;-1.10;99.90;;;;;;5042275;28;20037;-66
2021/12/21 11:43:22;;;;;;;13.77;8.88;;;-1.10;99.90;;;;;;5038600;28;20033;-66
2021/12/21 11:45:56;;;;;;;16.40;7.10;;;-1.00;99.90;;;;;;5041105;28;20961;-66
2021/12/21 11:48:31;;;;;;;11.77;7.28;;;-1.00;99.90;;;;;;5036575;28;20047;-65
2021/12/21 11:51:04;;;;;;;14.98;8.82;;;-0.90;99.90;;;;;;5043747;28;20040;-66
2021/12/21 11:53:30;;;;;;;16.75;9.50;;;-0.80;99.90;;;;;;5041221;28;20032;-65
2021/12/21 11:55:56;;;;;;;14.00;7.10;;;-0.80;99.90;;;;;;5039002;28;20514;-65
2021/12/21 11:58:29;;;;;;;8.48;6.55;;;-0.80;99.90;;;;;;5046759;28;20028;-65
2021/12/21 12:01:12;;;;;;;12.40;7.07;;;-0.70;99.90;;;;;;5030014;28;20407;-66
2021/12/21 12:03:39;;;;;;;19.58;7.85;;;-0.70;99.90;;;;;;5033058;28;20040;-66
2021/12/21 12:06:11;;;;;;;9.05;7.13;;;-0.70;99.90;;;;;;5035000;28;20031;-66
2021/12/21 12:08:42;;;;;;;10.50;7.50;;;-0.70;99.90;;;;;;5038068;28;20039;-66
2021/12/21 12:11:08;;;;;;;9.68;7.97;;;-0.60;99.90;;;;;;5035837;28;20025;-66
2021/12/21 12:13:43;;;;;;;12.10;6.68;;;-0.60;99.90;;;;;;5038250;28;20117;-66
2021/12/21 12:16:14;;;;;;;11.85;8.15;;;-0.60;99.90;;;;;;5035688;28;20050;-66
2021/12/21 12:18:45;;;;;;;12.13;7.38;;;-0.60;99.90;;;;;;5032876;28;20060;-65
2021/12/21 12:21:25;;;;;;;9.68;7.35;;;-0.50;99.90;;;;;;5035786;28;20033;-66
2021/12/21 12:23:57;;;;;;;16.05;7.43;;;-0.50;99.90;;;;;;5033645;28;20083;-66
2021/12/21 12:26:26;;;;;;;11.60;7.15;;;-0.40;99.90;;;;;;5036986;28;20033;-65
2021/12/21 12:28:54;;;;;;;11.18;7.55;;;-0.50;99.90;;;;;;5031880;28;20057;-66
2021/12/21 12:31:33;;;;;;;15.10;7.60;;;-0.50;99.90;;;;;;5031002;28;20143;-66
2021/12/21 12:33:59;;;;;;;25.08;11.55;;;-0.50;99.90;;;;;;5042330;28;20295;-65
2021/12/21 12:36:41;;;;;;;18.88;9.18;;;-0.60;99.90;;;;;;5041337;28;20040;-66
2021/12/21 12:39:08;;;;;;;12.85;6.75;;;-0.50;99.90;;;;;;5041683;28;20041;-65
2021/12/21 12:41:47;;;;;;;17.15;8.57;;;-0.60;99.90;;;;;;5038388;28;20467;-66
2021/12/21 12:44:20;;;;;;;19.30;9.90;;;-0.60;99.90;;;;;;5035851;28;20087;-66
2021/12/21 12:46:53;;;;;;;14.90;8.13;;;-0.60;99.90;;;;;;5040559;28;20438;-66
2021/12/21 12:49:23;;;;;;;11.13;7.38;;;-0.60;99.90;;;;;;5035854;28;20040;-66
2021/12/21 12:51:49;;;;;;;13.95;8.27;;;-0.60;99.90;;;;;;5034014;28;20452;-65
2021/12/21 12:54:25;;;;;;;15.30;8.07;;;-0.60;99.90;;;;;;5042108;28;20039;-65
2021/12/21 12:56:51;;;;;;;9.40;6.78;;;-0.60;99.90;;;;;;5039352;28;20101;-65
2021/12/21 12:59:17;;;;;;;10.25;7.30;;;-0.60;99.90;;;;;;5036506;28;20021;-66
2021/12/21 13:01:46;;;;;;;12.95;8.77;;;-0.60;99.90;;;;;;5030963;28;20490;-66
2021/12/21 13:04:14;;;;;;;17.65;8.63;;;-0.60;99.90;;;;;;5036815;28;20029;-65
2021/12/21 13:06:41;;;;;;;;;;;-0.50;99.90;;;;;;5038474;28;20037;-66
2021/12/21 13:09:10;;;;;;;11.02;7.68;;;-0.50;99.90;;;;;;5038710;28;20287;-65
2021/12/21 13:11:40;;;;;;;23.52;9.15;;;-0.50;99.90;;;;;;5040865;28;20041;-66
2021/12/21 13:14:08;;;;;;;16.75;9.40;;;-0.50;99.90;;;;;;5034960;28;20044;-66
2021/12/21 13:16:35;;;;;;;13.45;8.70;;;-0.50;99.90;;;;;;5037155;28;20438;-66
2021/12/21 13:19:05;;;;;;;14.82;8.15;;;-0.50;99.90;;;;;;5037400;28;20120;-66
2021/12/21 13:21:40;;;;;;;20.67;9.35;;;-0.50;99.90;;;;;;5035246;28;20179;-66
2021/12/21 13:24:09;;;;;;;12.00;7.95;;;-0.60;99.90;;;;;;5035354;28;20043;-65
2021/12/21 13:26:51;;;;;;;11.95;7.30;;;-0.60;99.90;;;;;;5034477;28;20123;-65
2021/12/21 13:29:22;;;;;;;14.32;8.00;;;-0.60;99.90;;;;;;5031087;28;20120;-66
2021/12/21 13:31:51;;;;;;;16.80;8.35;;;-0.60;99.90;;;;;;5036154;28;20041;-66
2021/12/21 13:34:18;;;;;;;11.85;6.65;;;-0.60;99.90;;;;;;5044157;28;20041;-66
2021/12/21 13:36:46;;;;;;;11.07;8.07;;;-0.60;99.90;;;;;;5030829;28;20143;-65
2021/12/21 13:39:29;;;;;;;17.75;8.32;;;-0.60;99.90;;;;;;5030398;28;20171;-66
2021/12/21 13:42:00;;;;;;;13.45;8.27;;;-0.60;99.90;;;;;;5031635;28;20747;-66
2021/12/21 13:44:48;;;;;;;19.08;8.93;;;-0.60;99.90;;;;;;5029430;28;20033;-66
2021/12/21 13:47:18;;;;;;;17.45;7.95;;;-0.50;99.90;;;;;;5032734;28;20061;-65
2021/12/21 13:50:05;;;;;;;12.00;6.50;;;-0.50;99.90;;;;;;5033604;28;20044;-65
2021/12/21 13:52:34;;;;;;;12.38;7.45;;;-0.50;99.90;;;;;;5033683;28;20045;-65
2021/12/21 13:55:00;;;;;;;13.30;7.05;;;-0.50;99.90;;;;;;5037689;28;20171;-66
2021/12/21 13:57:26;;;;;;;14.68;7.18;;;-0.40;99.90;;;;;;5035623;28;20048;-65
2021/12/21 13:59:54;;;;;;;12.02;7.20;;;-0.40;99.90;;;;;;5034039;28;20030;-66
2021/12/21 14:02:34;;;;;;;12.15;7.47;;;-0.40;99.90;;;;;;5035566;28;20105;-65
2021/12/21 14:05:03;;;;;;;11.52;7.30;;;-0.40;99.90;;;;;;5033166;28;21596;-66
2021/12/21 14:07:40;;;;;;;12.13;7.78;;;-0.40;99.90;;;;;;5034330;28;20037;-66
2021/12/21 14:10:12;;;;;;;18.05;6.88;;;-0.40;99.90;;;;;;5034732;28;20443;-64
2021/12/21 14:12:38;;;;;;;14.32;8.02;;;-0.40;99.90;;;;;;5039247;28;20029;-65
2021/12/21 14:15:05;;;;;;;9.88;5.88;;;-0.40;99.90;;;;;;5036342;28;20084;-66